Time;durP1;ratioP1;P1;durP2;ratioP2;P2;SDS_P1;SDS_P2;PMS_P1;PMS_P2;Temp;Humidity;BMP_temperature;BMP_pressure;BME280_temperature;BME280_humidity;BME280_pressure;Samples;Min_cycle;Max_cycle;Signal;HPM_P1;HPM_P2
2022/04/16 00:01:42;;;;;;;13.82;11.23;;;8.40;99.90;;;;;;4977040;28;20053;-83
2022/04/16 00:04:09;;;;;;;17.38;12.38;;;8.30;99.90;;;;;;4979430;28;20152;-82
2022/04/16 00:06:35;;;;;;;18.85;12.52;;;8.30;99.90;;;;;;4979455;28;20080;-83
2022/04/16 00:09:01;;;;;;;17.17;12.85;;;8.20;99.90;;;;;;4977728;28;20427;-83
2022/04/16 00:11:27;;;;;;;16.45;12.90;;;8.20;99.90;;;;;;4975863;28;20049;-83
2022/04/16 00:13:52;;;;;;;20.95;13.50;;;8.20;99.90;;;;;;4977790;28;20110;-84
2022/04/16 00:16:18;;;;;;;17.40;13.90;;;8.20;99.90;;;;;;4980210;28;20474;-80
2022/04/16 00:18:44;;;;;;;17.85;13.80;;;8.20;99.90;;;;;;4978947;28;20093;-82
2022/04/16 00:21:10;;;;;;;16.20;13.52;;;8.20;99.90;;;;;;4976346;28;20051;-82
2022/04/16 00:23:37;;;;;;;18.85;13.93;;;8.10;99.90;;;;;;4976835;28;20126;-82
2022/04/16 00:26:03;;;;;;;19.92;14.50;;;8.20;99.90;;;;;;4977104;28;20561;-83
2022/04/16 00:28:30;;;;;;;17.20;14.32;;;8.10;99.90;;;;;;4979152;28;20042;-81
2022/04/16 00:30:56;;;;;;;22.60;15.18;;;8.10;99.90;;;;;;4961682;28;20034;-83
2022/04/16 00:33:22;;;;;;;18.67;14.75;;;8.10;99.90;;;;;;4975851;28;20447;-83
2022/04/16 00:35:48;;;;;;;20.30;14.23;;;8.10;99.90;;;;;;4975953;28;20731;-83
2022/04/16 00:38:14;;;;;;;17.92;14.32;;;8.10;99.90;;;;;;4978926;28;20496;-83
2022/04/16 00:40:40;;;;;;;22.83;16.23;;;8.10;99.90;;;;;;4979140;28;20475;-82
2022/04/16 00:43:06;;;;;;;17.25;13.75;;;8.00;99.90;;;;;;4980058;28;20097;-82
2022/04/16 00:45:33;;;;;;;21.20;14.93;;;8.00;99.90;;;;;;4980917;28;20042;-83
2022/04/16 00:47:59;;;;;;;18.83;13.95;;;8.00;99.90;;;;;;4979800;28;20271;-81
2022/04/16 00:50:26;;;;;;;15.63;13.38;;;8.00;99.90;;;;;;4981986;28;20034;-82
2022/04/16 00:52:52;;;;;;;16.83;13.25;;;8.00;99.90;;;;;;4983853;28;20049;-82
2022/04/16 00:55:18;;;;;;;20.08;14.32;;;7.90;99.90;;;;;;4980012;28;20391;-83
2022/04/16 00:57:44;;;;;;;18.25;13.63;;;8.00;99.90;;;;;;4984984;28;20601;-82
2022/04/16 01:00:12;;;;;;;17.73;14.25;;;8.00;99.90;;;;;;4980707;28;20537;-80
2022/04/16 01:02:38;;;;;;;18.73;13.57;;;8.00;99.90;;;;;;4979213;28;20511;-81
2022/04/16 01:05:05;;;;;;;16.77;13.30;;;8.00;99.90;;;;;;4980959;28;20073;-82
2022/04/16 01:07:31;;;;;;;19.50;13.40;;;8.00;99.90;;;;;;4982101;28;20317;-83
2022/04/16 01:09:57;;;;;;;16.42;14.35;;;8.00;99.90;;;;;;4982345;28;20344;-83
2022/04/16 01:12:23;;;;;;;16.85;14.18;;;8.00;99.90;;;;;;4979759;28;20512;-82
2022/04/16 01:14:50;;;;;;;18.00;13.27;;;8.00;99.90;;;;;;4978976;28;20127;-81
2022/04/16 01:17:16;;;;;;;18.67;14.73;;;7.90;99.90;;;;;;4982799;28;20057;-83
2022/04/16 01:19:42;;;;;;;19.75;14.02;;;7.80;99.90;;;;;;4983003;28;20050;-83
2022/04/16 01:22:14;;;;;;;17.45;13.48;;;7.90;99.90;;;;;;4966312;28;20066;-82
2022/04/16 01:24:47;;;;;;;16.92;13.98;;;7.90;99.90;;;;;;4984213;28;20027;-83
2022/04/16 01:27:13;;;;;;;19.33;14.52;;;7.80;99.90;;;;;;4985922;28;20100;-82
2022/04/16 01:29:40;;;;;;;16.08;13.15;;;7.90;99.90;;;;;;4982200;28;20514;-82
2022/04/16 01:32:06;;;;;;;18.73;13.82;;;7.90;99.90;;;;;;4965041;28;20042;-83
2022/04/16 01:34:35;;;;;;;17.33;13.65;;;7.90;99.90;;;;;;4978530;28;20114;-83
2022/04/16 01:37:02;;;;;;;20.42;14.20;;;7.90;99.90;;;;;;4978438;28;20053;-83
2022/04/16 01:39:28;;;;;;;18.65;14.65;;;7.80;99.90;;;;;;4964332;28;20403;-83
2022/04/16 01:41:54;;;;;;;19.88;14.77;;;7.80;99.90;;;;;;4982760;28;20503;-82
2022/04/16 01:44:20;;;;;;;16.00;13.80;;;7.70;99.90;;;;;;4963380;28;20050;-84
2022/04/16 01:46:46;;;;;;;16.67;13.88;;;7.70;99.90;;;;;;4978251;28;20456;-82
2022/04/16 01:49:12;;;;;;;16.92;13.90;;;7.70;99.90;;;;;;4978838;28;20066;-82
2022/04/16 01:51:37;;;;;;;17.45;14.07;;;7.60;99.90;;;;;;4983309;28;20082;-82
2022/04/16 01:54:03;;;;;;;16.48;13.07;;;7.60;99.90;;;;;;4981567;28;20081;-83
2022/04/16 01:56:29;;;;;;;17.80;13.70;;;7.60;99.90;;;;;;4983108;28;20411;-82
2022/04/16 01:58:55;;;;;;;17.00;13.43;;;7.60;99.90;;;;;;4982233;28;20120;-83
2022/04/16 02:01:22;;;;;;;17.75;14.45;;;7.60;99.90;;;;;;4978646;28;20470;-83
2022/04/16 02:03:48;;;;;;;16.58;13.85;;;7.60;99.90;;;;;;4962434;28;20399;-83
2022/04/16 02:06:13;;;;;;;19.02;13.48;;;7.50;99.90;;;;;;4978624;28;20049;-83
2022/04/16 02:08:39;;;;;;;18.95;14.02;;;7.50;99.90;;;;;;4980223;28;20042;-83
2022/04/16 02:11:04;;;;;;;19.85;14.32;;;7.40;99.90;;;;;;4982747;28;20082;-83
2022/04/16 02:13:30;;;;;;;21.48;13.95;;;7.40;99.90;;;;;;4979922;28;20089;-82
2022/04/16 02:15:56;;;;;;;18.42;15.27;;;7.40;99.90;;;;;;4978214;28;20557;-84
2022/04/16 02:18:23;;;;;;;17.75;13.80;;;7.30;99.90;;;;;;4979197;28;20059;-83
2022/04/16 02:20:49;;;;;;;17.45;14.75;;;7.30;99.90;;;;;;4982195;28;20042;-81
2022/04/16 02:23:16;;;;;;;17.58;15.20;;;7.20;99.90;;;;;;4979660;28;20054;-83
2022/04/16 02:25:43;;;;;;;19.17;14.48;;;7.20;99.90;;;;;;4979169;28;20051;-83
2022/04/16 02:28:09;;;;;;;20.17;15.65;;;7.20;99.90;;;;;;4977643;28;20046;-82
2022/04/16 02:30:36;;;;;;;19.27;14.20;;;7.20;99.90;;;;;;4981276;28;20113;-82
2022/04/16 02:33:01;;;;;;;21.30;14.98;;;7.20;99.90;;;;;;4964385;28;20455;-82
2022/04/16 02:35:28;;;;;;;20.42;14.65;;;7.10;99.90;;;;;;4980639;28;20117;-82
2022/04/16 02:37:54;;;;;;;19.45;15.02;;;7.20;99.90;;;;;;4960349;28;20035;-83
2022/04/16 02:40:19;;;;;;;18.17;15.20;;;7.20;99.90;;;;;;4978947;28;20111;-82
2022/04/16 02:42:45;;;;;;;20.25;15.80;;;7.20;99.90;;;;;;4963714;28;20053;-83
2022/04/16 02:47:58;;;;;;;22.23;16.50;;;8.50;99.90;;;;;;4978642;28;20138;-83
2022/04/16 02:50:25;;;;;;;20.35;15.90;;;7.20;99.90;;;;;;4978524;28;20097;-83
2022/04/16 02:52:55;;;;;;;22.13;15.77;;;7.20;99.90;;;;;;4976065;28;20078;-83
2022/04/16 02:55:21;;;;;;;21.65;16.67;;;7.20;99.90;;;;;;4961249;28;20527;-83
2022/04/16 02:57:49;;;;;;;20.80;16.15;;;7.20;99.90;;;;;;4979642;28;20073;-82
2022/04/16 03:00:15;;;;;;;21.15;16.40;;;7.10;99.90;;;;;;4980049;28;20046;-83
2022/04/16 03:02:41;;;;;;;19.38;14.45;;;7.00;99.90;;;;;;4977474;28;20074;-82
2022/04/16 03:05:08;;;;;;;22.60;17.00;;;7.00;99.90;;;;;;4977582;28;20070;-83
2022/04/16 03:07:35;;;;;;;23.80;17.63;;;7.00;99.90;;;;;;4978873;28;20038;-83
2022/04/16 03:10:02;;;;;;;21.85;17.08;;;6.90;99.90;;;;;;4981220;28;20414;-82
2022/04/16 03:12:28;;;;;;;23.75;18.13;;;7.00;99.90;;;;;;4978282;28;20042;-83
2022/04/16 03:17:37;;;;;;;24.00;17.33;;;6.90;99.90;;;;;;4983344;28;20077;-83
2022/04/16 03:20:05;;;;;;;26.05;18.38;;;6.80;99.90;;;;;;4984383;28;20289;-82
2022/04/16 03:22:33;;;;;;;27.30;20.25;;;6.90;99.90;;;;;;4979198;28;20495;-82
2022/04/16 03:25:01;;;;;;;24.73;18.58;;;6.80;99.90;;;;;;4975688;28;20602;-81
2022/04/16 03:27:26;;;;;;;28.40;20.30;;;6.80;99.90;;;;;;4977352;28;20072;-83
2022/04/16 03:29:52;;;;;;;25.13;20.27;;;6.80;99.90;;;;;;4980790;28;20561;-82
2022/04/16 03:32:17;;;;;;;29.05;20.73;;;6.90;99.90;;;;;;4979194;28;20125;-83
2022/04/16 03:34:43;;;;;;;25.58;20.38;;;6.90;99.90;;;;;;4978337;28;20074;-82
2022/04/16 03:37:08;;;;;;;23.92;19.02;;;6.90;99.90;;;;;;4944525;28;20054;-82
2022/04/16 03:39:34;;;;;;;32.67;22.27;;;7.00;99.90;;;;;;4978400;28;20377;-83
2022/04/16 03:42:00;;;;;;;27.67;20.38;;;7.00;99.90;;;;;;4979758;28;20050;-83
2022/04/16 03:44:25;;;;;;;25.17;20.42;;;7.00;99.90;;;;;;4979894;28;20062;-82
2022/04/16 03:46:51;;;;;;;27.42;20.65;;;7.10;99.90;;;;;;4977421;28;20090;-82
2022/04/16 03:49:16;;;;;;;28.75;21.67;;;7.10;99.90;;;;;;4977661;28;20039;-83
2022/04/16 03:51:42;;;;;;;29.05;22.60;;;7.10;99.90;;;;;;4979714;28;20058;-82
2022/04/16 04:02:20;;;;;;;25.20;20.83;;;7.20;99.90;;;;;;4980300;28;20065;-82
2022/04/16 04:04:46;;;;;;;27.63;21.33;;;7.20;99.90;;;;;;4973294;28;20278;-84
2022/04/16 04:07:12;;;;;;;25.98;20.95;;;7.20;99.90;;;;;;4980301;28;20054;-83
2022/04/16 04:09:38;;;;;;;25.83;20.42;;;7.30;99.90;;;;;;4980049;28;20510;-83
2022/04/16 04:12:14;;;;;;;24.58;19.85;;;7.30;99.90;;;;;;4976438;28;20051;-81
2022/04/16 04:14:41;;;;;;;29.20;21.33;;;7.40;99.90;;;;;;4977144;28;20122;-83
2022/04/16 04:17:08;;;;;;;26.45;22.23;;;7.40;99.90;;;;;;4981457;28;20115;-83
2022/04/16 04:19:35;;;;;;;28.25;22.63;;;7.40;99.90;;;;;;4982884;28;20082;-82
2022/04/16 04:22:06;;;;;;;33.42;25.48;;;7.40;99.90;;;;;;4980385;28;20384;-83
2022/04/16 04:24:32;;;;;;;30.20;23.88;;;7.50;99.90;;;;;;4980206;28;20077;-83
2022/04/16 04:26:59;;;;;;;28.27;23.48;;;7.40;99.90;;;;;;4984241;28;20074;-83
2022/04/16 04:29:26;;;;;;;32.10;26.27;;;7.50;99.90;;;;;;4984039;28;20046;-83
2022/04/16 04:31:52;;;;;;;36.40;27.10;;;7.50;99.90;;;;;;4980885;28;20054;-83
2022/04/16 04:34:18;;;;;;;36.05;27.65;;;7.50;99.90;;;;;;4963791;28;20398;-83
2022/04/16 04:36:43;;;;;;;40.25;28.30;;;7.50;99.90;;;;;;4981569;28;20042;-84
2022/04/16 04:39:09;;;;;;;37.03;28.13;;;7.50;99.90;;;;;;4983254;28;20290;-81
2022/04/16 04:41:35;;;;;;;43.63;30.77;;;7.50;99.90;;;;;;4983373;28;20047;-84
2022/04/16 04:44:00;;;;;;;40.45;30.17;;;7.50;99.90;;;;;;4987187;28;20050;-84
2022/04/16 04:46:26;;;;;;;37.88;29.20;;;7.50;99.90;;;;;;4981148;28;20050;-83
2022/04/16 04:48:51;;;;;;;38.55;30.38;;;7.50;99.90;;;;;;4983072;28;20133;-82
2022/04/16 04:51:17;;;;;;;41.40;32.38;;;7.40;99.90;;;;;;4966237;28;20046;-83
2022/04/16 04:53:43;;;;;;;40.50;31.10;;;7.50;99.90;;;;;;4983731;28;20489;-81
2022/04/16 04:56:08;;;;;;;38.95;30.13;;;7.50;99.90;;;;;;4979807;28;20043;-84
2022/04/16 04:58:34;;;;;;;39.05;30.98;;;7.50;99.90;;;;;;4978485;28;20050;-83
2022/04/16 05:00:59;;;;;;;39.17;31.65;;;7.50;99.90;;;;;;4983596;28;20053;-84
2022/04/16 05:03:25;;;;;;;42.10;31.80;;;7.50;99.90;;;;;;4982162;28;20052;-84
2022/04/16 05:05:51;;;;;;;40.88;30.98;;;7.50;99.90;;;;;;4980896;28;20050;-83
2022/04/16 05:08:16;;;;;;;39.42;30.60;;;7.50;99.90;;;;;;4979089;28;20047;-83
2022/04/16 05:10:42;;;;;;;37.95;31.25;;;7.50;99.90;;;;;;4982622;28;20042;-83
2022/04/16 05:13:07;;;;;;;41.85;30.40;;;7.50;99.90;;;;;;4989159;28;20050;-84
2022/04/16 05:15:33;;;;;;;39.25;31.83;;;7.50;99.90;;;;;;4984738;28;20085;-84
2022/04/16 05:17:59;;;;;;;37.17;28.63;;;7.50;99.90;;;;;;4978680;28;20081;-81
2022/04/16 05:20:24;;;;;;;39.17;30.13;;;7.50;99.90;;;;;;4962854;28;20050;-83
2022/04/16 05:22:50;;;;;;;39.38;31.25;;;7.50;99.90;;;;;;4980195;28;20054;-82
2022/04/16 05:25:15;;;;;;;38.22;28.88;;;7.50;99.90;;;;;;4981633;28;20141;-82
2022/04/16 05:27:45;;;;;;;41.15;31.48;;;7.50;99.90;;;;;;4982672;28;20058;-83
2022/04/16 05:30:21;;;;;;;40.78;30.42;;;7.50;99.90;;;;;;4977699;28;20070;-83
2022/04/16 05:32:49;;;;;;;40.95;30.70;;;7.50;99.90;;;;;;4980463;28;20042;-83
2022/04/16 05:35:15;;;;;;;39.33;30.85;;;7.50;99.90;;;;;;4966333;28;20054;-83
2022/04/16 05:37:41;;;;;;;40.47;30.33;;;7.50;99.90;;;;;;4981894;28;20051;-83
2022/04/16 05:40:08;;;;;;;41.17;31.85;;;7.60;99.90;;;;;;4979246;28;20125;-83
2022/04/16 05:42:44;;;;;;;38.92;30.67;;;7.60;99.90;;;;;;4978478;28;20065;-82
2022/04/16 05:45:14;;;;;;;41.70;31.95;;;7.60;99.90;;;;;;4979990;28;20399;-82
2022/04/16 05:47:41;;;;;;;40.78;31.13;;;7.60;99.90;;;;;;4962623;28;20051;-83
2022/04/16 05:50:07;;;;;;;40.72;31.45;;;7.60;99.90;;;;;;4986192;28;20552;-83
2022/04/16 05:52:34;;;;;;;35.45;26.25;;;7.60;99.90;;;;;;4979210;28;20046;-83
2022/04/16 05:55:01;;;;;;;32.65;26.33;;;7.60;99.90;;;;;;4980667;28;20177;-83
2022/04/16 05:57:27;;;;;;;33.33;24.75;;;7.70;99.90;;;;;;4981691;28;20100;-82
2022/04/16 05:59:55;;;;;;;32.35;24.63;;;7.70;99.90;;;;;;4963369;28;20403;-83
2022/04/16 06:02:21;;;;;;;30.33;23.90;;;7.70;99.90;;;;;;4977916;28;20055;-83
2022/04/16 06:04:47;;;;;;;30.80;24.20;;;7.60;99.90;;;;;;4979050;28;20042;-83
2022/04/16 06:07:13;;;;;;;30.45;23.20;;;7.60;99.90;;;;;;4964520;28;20042;-84
2022/04/16 06:09:38;;;;;;;28.83;21.35;;;7.70;99.90;;;;;;4981771;28;20406;-83
2022/04/16 06:12:05;;;;;;;25.88;21.27;;;7.70;99.90;;;;;;4979661;28;20129;-84
2022/04/16 06:14:31;;;;;;;30.42;22.27;;;7.70;99.90;;;;;;4978790;28;20057;-82
2022/04/16 06:16:57;;;;;;;25.48;20.70;;;7.70;99.90;;;;;;4979515;28;20046;-84
2022/04/16 06:19:23;;;;;;;28.73;19.33;;;7.70;99.90;;;;;;4982266;28;20042;-83
2022/04/16 06:21:49;;;;;;;20.70;16.98;;;9.00;99.90;;;;;;4963566;28;20046;-83
2022/04/16 06:24:15;;;;;;;21.00;14.57;;;7.70;99.90;;;;;;4979283;28;20043;-84
2022/04/16 06:26:42;;;;;;;24.77;15.77;;;7.70;99.90;;;;;;4977888;28;20145;-83
2022/04/16 06:29:08;;;;;;;20.02;14.88;;;7.70;99.90;;;;;;4980080;28;20050;-83
2022/04/16 06:31:34;;;;;;;17.65;12.98;;;7.70;99.90;;;;;;4981043;28;20046;-83
2022/04/16 06:33:59;;;;;;;16.95;13.02;;;7.70;99.90;;;;;;4979002;28;20043;-83
2022/04/16 06:36:25;;;;;;;18.77;14.48;;;7.70;99.90;;;;;;4978285;28;20054;-84
2022/04/16 06:38:50;;;;;;;18.98;14.18;;;7.80;99.90;;;;;;4977501;28;20479;-83
2022/04/16 06:41:16;;;;;;;20.98;13.07;;;7.70;99.90;;;;;;4961024;28;20042;-83
2022/04/16 06:43:42;;;;;;;19.58;13.90;;;7.80;99.90;;;;;;4978550;28;20039;-83
2022/04/16 06:46:07;;;;;;;17.92;12.32;;;7.80;99.90;;;;;;4981989;28;20402;-84
2022/04/16 06:48:33;;;;;;;19.08;13.25;;;7.80;99.90;;;;;;4981658;28;20509;-84
2022/04/16 06:50:59;;;;;;;17.30;13.80;;;7.80;99.90;;;;;;4979450;28;20080;-83
2022/04/16 06:53:27;;;;;;;17.15;12.98;;;7.80;99.90;;;;;;4978756;28;20042;-83
2022/04/16 06:55:53;;;;;;;17.13;13.00;;;7.90;99.90;;;;;;4977988;28;20038;-84
2022/04/16 06:58:19;;;;;;;18.35;12.70;;;8.00;99.90;;;;;;4980712;28;20561;-84
2022/04/16 07:00:44;;;;;;;14.82;12.63;;;8.00;99.90;;;;;;4965096;28;20552;-84
2022/04/16 07:03:10;;;;;;;21.35;13.57;;;8.00;99.90;;;;;;4977068;28;20906;-83
2022/04/16 07:05:35;;;;;;;20.33;13.20;;;8.00;99.90;;;;;;4979771;28;20054;-82
2022/04/16 07:08:01;;;;;;;17.45;12.95;;;8.00;99.90;;;;;;4980861;28;20109;-81
2022/04/16 07:10:26;;;;;;;16.40;12.00;;;8.00;99.90;;;;;;4978936;28;20050;-83
2022/04/16 07:12:52;;;;;;;15.13;11.25;;;8.10;99.90;;;;;;4977850;28;20121;-85
2022/04/16 07:15:17;;;;;;;14.85;11.95;;;8.20;99.90;;;;;;4979622;28;20050;-83
2022/04/16 07:17:45;;;;;;;15.15;10.82;;;8.20;99.90;;;;;;4976024;28;20042;-83
2022/04/16 07:20:11;;;;;;;16.23;10.73;;;8.20;99.90;;;;;;4968530;28;20133;-84
2022/04/16 07:22:37;;;;;;;13.23;9.75;;;8.30;99.90;;;;;;4976484;28;20050;-83
2022/04/16 07:25:04;;;;;;;13.45;8.88;;;8.40;99.90;;;;;;4961872;28;20526;-84
2022/04/16 07:27:31;;;;;;;13.52;9.27;;;8.40;99.90;;;;;;4979846;28;20054;-83
2022/04/16 07:29:58;;;;;;;14.40;9.80;;;9.40;99.90;;;;;;4962315;28;20050;-84
2022/04/16 07:32:25;;;;;;;13.60;9.20;;;8.40;99.90;;;;;;4977327;28;20562;-84
2022/04/16 07:34:51;;;;;;;12.65;8.45;;;8.40;99.90;;;;;;4978597;28;20074;-83
2022/04/16 07:37:17;;;;;;;12.02;8.68;;;8.50;99.90;;;;;;4963229;28;20494;-84
2022/04/16 07:39:42;;;;;;;13.50;8.70;;;8.50;99.90;;;;;;4978950;28;20047;-82
2022/04/16 07:42:08;;;;;;;10.43;8.07;;;8.60;99.90;;;;;;4977024;28;20509;-84
2022/04/16 07:44:35;;;;;;;9.60;7.13;;;8.60;99.90;;;;;;4976495;28;20039;-84
2022/04/16 07:47:00;;;;;;;9.52;7.25;;;8.70;99.90;;;;;;4977295;28;20054;-83
2022/04/16 07:49:26;;;;;;;12.75;7.78;;;9.80;99.90;;;;;;4979783;28;20057;-84
2022/04/16 07:51:51;;;;;;;12.80;9.38;;;8.70;99.90;;;;;;4979524;28;20080;-83
2022/04/16 07:54:17;;;;;;;12.52;8.60;;;8.80;99.90;;;;;;4976916;28;20066;-84
2022/04/16 07:56:43;;;;;;;13.50;8.13;;;8.80;99.90;;;;;;4977510;28;20287;-83
2022/04/16 07:59:08;;;;;;;6.57;5.40;;;8.90;99.90;;;;;;4978787;28;20038;-84
2022/04/16 08:01:34;;;;;;;9.70;5.03;;;9.00;99.90;;;;;;4980869;28;20049;-84
2022/04/16 08:03:59;;;;;;;6.60;4.80;;;8.90;99.90;;;;;;4977974;28;20471;-84
2022/04/16 08:06:25;;;;;;;6.72;4.43;;;9.00;99.90;;;;;;4975449;28;20045;-84
2022/04/16 08:08:52;;;;;;;9.82;6.10;;;9.10;99.90;;;;;;4960249;28;20098;-84
2022/04/16 08:11:18;;;;;;;7.63;5.40;;;9.10;99.90;;;;;;4963316;28;20041;-83
2022/04/16 08:13:43;;;;;;;8.48;6.00;;;9.10;99.90;;;;;;4980400;28;20043;-84
2022/04/16 08:16:09;;;;;;;8.63;6.63;;;9.10;99.90;;;;;;4977313;28;20043;-84
2022/04/16 08:18:34;;;;;;;10.73;7.35;;;9.20;99.90;;;;;;4977191;28;20047;-85
2022/04/16 08:21:00;;;;;;;10.93;7.78;;;9.20;99.90;;;;;;4978099;28;20198;-84
2022/04/16 08:23:26;;;;;;;12.70;7.53;;;9.20;99.90;;;;;;4979412;28;20072;-83
2022/04/16 08:25:52;;;;;;;10.18;7.78;;;9.30;99.90;;;;;;4978894;28;20051;-83
2022/04/16 08:28:18;;;;;;;13.30;7.70;;;9.30;99.90;;;;;;4971106;28;20047;-84
2022/04/16 08:30:44;;;;;;;11.40;6.82;;;9.30;99.90;;;;;;4980539;28;20037;-83
2022/04/16 08:33:16;;;;;;;11.88;7.95;;;9.40;99.90;;;;;;4981033;28;20478;-82
2022/04/16 08:35:43;;;;;;;7.75;6.43;;;9.50;99.90;;;;;;4962952;28;20038;-83
2022/04/16 08:38:10;;;;;;;11.48;5.80;;;9.50;99.90;;;;;;4977089;28;20513;-83
2022/04/16 08:40:35;;;;;;;9.35;5.50;;;9.50;99.90;;;;;;4976363;28;20094;-84
2022/04/16 08:43:01;;;;;;;9.45;5.45;;;9.60;99.90;;;;;;4960132;28;20815;-83
2022/04/16 08:45:30;;;;;;;7.15;4.90;;;9.60;99.90;;;;;;4979763;28;20394;-85
2022/04/16 08:47:56;;;;;;;8.38;4.50;;;9.60;99.90;;;;;;4978416;28;20042;-84
2022/04/16 08:50:23;;;;;;;8.40;4.90;;;9.70;99.90;;;;;;4975112;28;20034;-83
2022/04/16 08:52:48;;;;;;;8.07;4.57;;;9.70;99.90;;;;;;4977219;28;20125;-84
2022/04/16 08:55:14;;;;;;;6.03;4.18;;;9.70;99.90;;;;;;4979073;28;20097;-84
2022/04/16 08:57:41;;;;;;;5.43;4.15;;;9.80;99.90;;;;;;4979833;28;20050;-82
2022/04/16 09:00:08;;;;;;;6.50;3.92;;;9.80;99.90;;;;;;4980973;28;20042;-81
2022/04/16 09:02:34;;;;;;;7.85;3.70;;;9.90;99.90;;;;;;4988057;28;20049;-81
2022/04/16 09:05:08;;;;;;;3.60;2.97;;;9.90;99.90;;;;;;4985940;28;20027;-81
2022/04/16 09:07:44;;;;;;;5.50;4.03;;;10.00;99.90;;;;;;4983485;28;20050;-78
2022/04/16 09:10:10;;;;;;;5.03;3.05;;;10.00;99.90;;;;;;4983265;28;20136;-84
2022/04/16 09:12:39;;;;;;;4.72;2.75;;;10.00;99.90;;;;;;4982636;28;20490;-82
2022/04/16 09:15:13;;;;;;;8.65;3.55;;;10.20;99.90;;;;;;4974925;28;20050;-75
2022/04/16 09:17:40;;;;;;;4.38;2.95;;;10.20;99.90;;;;;;4980882;28;20055;-76
2022/04/16 09:20:14;;;;;;;6.68;2.50;;;10.30;99.90;;;;;;4981597;28;20479;-77
2022/04/16 09:22:41;;;;;;;2.78;2.50;;;10.40;99.90;;;;;;4979553;28;20416;-80
2022/04/16 09:25:17;;;;;;;5.57;3.33;;;10.40;99.90;;;;;;4987343;28;20089;-79
2022/04/16 09:27:49;;;;;;;3.95;2.53;;;10.60;99.90;;;;;;4985968;28;20109;-77
2022/04/16 09:30:30;;;;;;;2.95;2.10;;;10.60;99.90;;;;;;4985634;28;20553;-79
2022/04/16 09:32:57;;;;;;;9.23;2.53;;;10.70;99.90;;;;;;4979099;28;20549;-79
2022/04/16 09:35:31;;;;;;;6.97;2.45;;;10.80;99.90;;;;;;4980273;28;20152;-75
2022/04/16 09:37:59;;;;;;;4.90;2.75;;;12.20;99.90;;;;;;4963579;28;20053;-74
2022/04/16 09:40:35;;;;;;;4.03;2.58;;;10.90;99.90;;;;;;4980259;28;20174;-76
2022/04/16 09:43:02;;;;;;;4.63;3.15;;;10.90;99.90;;;;;;4980554;28;20043;-76
2022/04/16 09:45:28;;;;;;;3.92;2.35;;;11.00;99.90;;;;;;4982836;28;20035;-77
2022/04/16 09:47:55;;;;;;;3.83;2.05;;;11.10;99.90;;;;;;4983122;28;20045;-78
2022/04/16 09:50:23;;;;;;;3.75;2.03;;;11.10;99.90;;;;;;4980050;28;20079;-76
2022/04/16 09:53:02;;;;;;;6.18;2.42;;;11.20;99.90;;;;;;4979299;28;20132;-77
2022/04/16 09:55:29;;;;;;;5.10;2.00;;;11.20;99.90;;;;;;4983260;28;20602;-78
2022/04/16 09:57:57;;;;;;;2.45;2.05;;;11.90;99.90;;;;;;4982894;28;20042;-76
2022/04/16 10:00:23;;;;;;;4.70;1.95;;;11.30;99.90;;;;;;4981640;28;20379;-76
2022/04/16 10:02:49;;;;;;;4.57;1.85;;;11.30;99.90;;;;;;4982274;28;20138;-75
2022/04/16 10:05:15;;;;;;;4.28;1.80;;;11.40;99.90;;;;;;4981992;28;20121;-75
2022/04/16 10:07:43;;;;;;;3.97;2.25;;;11.40;99.90;;;;;;4987867;28;20050;-75
2022/04/16 10:10:18;;;;;;;1.90;1.33;;;11.40;99.90;;;;;;4963663;28;20395;-75
2022/04/16 10:13:05;;;;;;;2.78;1.73;;;11.40;99.90;;;;;;4961056;28;20045;-75
2022/04/16 10:15:52;;;;;;;2.17;1.60;;;11.60;99.90;;;;;;4979251;28;20078;-75
2022/04/16 10:18:17;;;;;;;1.88;1.40;;;11.60;99.90;;;;;;4621688;28;10000399;-76
2022/04/16 10:20:57;;;;;;;2.20;1.50;;;11.70;99.90;;;;;;4981110;28;20457;-75
2022/04/16 10:23:30;;;;;;;0.98;0.82;;;11.90;99.90;;;;;;4972772;28;20042;-76
2022/04/16 10:26:37;;;;;;;2.15;0.95;;;11.90;99.50;;;;;;4982675;28;20046;-76
2022/04/16 10:29:03;;;;;;;1.25;0.80;;;12.00;97.10;;;;;;4978250;28;20070;-75
2022/04/16 10:31:33;;;;;;;2.35;1.13;;;11.60;96.80;;;;;;4976969;28;20122;-75
2022/04/16 10:34:05;;;;;;;1.67;0.93;;;12.00;97.40;;;;;;4984343;28;20077;-75
2022/04/16 10:36:41;;;;;;;2.03;0.85;;;12.10;96.40;;;;;;4977198;28;20055;-75
2022/04/16 10:39:15;;;;;;;1.02;0.82;;;12.10;97.40;;;;;;4959303;28;20050;-76
2022/04/16 10:41:58;;;;;;;1.38;1.10;;;12.20;96.60;;;;;;4980573;28;20053;-74
2022/04/16 10:44:26;;;;;;;1.38;0.65;;;12.20;96.90;;;;;;4982528;28;20058;-75
2022/04/16 10:46:54;;;;;;;3.30;0.70;;;12.30;97.20;;;;;;4979417;28;20112;-81
2022/04/16 10:49:22;;;;;;;3.13;1.20;;;12.40;96.00;;;;;;4976869;28;20074;-74
2022/04/16 10:51:50;;;;;;;2.05;0.95;;;12.50;95.10;;;;;;4974405;28;20043;-75
2022/04/16 10:54:32;;;;;;;5.53;0.98;;;12.50;94.50;;;;;;4978214;28;20149;-75
2022/04/16 10:56:58;;;;;;;1.58;0.77;;;12.60;93.30;;;;;;4984006;28;20160;-76
2022/04/16 10:59:41;;;;;;;0.50;0.50;;;12.70;91.80;;;;;;4976152;28;20487;-76
2022/04/16 11:02:22;;;;;;;1.42;0.60;;;12.80;88.30;;;;;;4976166;28;20287;-76
2022/04/16 11:04:56;;;;;;;0.55;0.32;;;12.70;83.50;;;;;;4978780;28;20113;-76
2022/04/16 11:07:23;;;;;;;2.35;0.38;;;12.80;80.40;;;;;;4959062;28;20399;-76
2022/04/16 11:09:51;;;;;;;0.45;0.30;;;12.80;79.20;;;;;;4980329;28;20039;-76
2022/04/16 11:12:22;;;;;;;2.97;0.50;;;12.60;79.50;;;;;;4976894;28;20069;-75
2022/04/16 11:14:51;;;;;;;2.58;0.45;;;12.90;78.70;;;;;;4981623;28;20038;-75
2022/04/16 11:17:19;;;;;;;0.20;0.20;;;13.00;79.30;;;;;;4977964;28;20054;-76
2022/04/16 11:19:45;;;;;;;2.08;0.30;;;13.10;76.90;;;;;;4981431;28;20428;-75
2022/04/16 11:22:11;;;;;;;0.38;0.30;;;13.20;78.50;;;;;;4976715;28;20054;-75
2022/04/16 11:24:37;;;;;;;2.42;0.40;;;13.40;80.40;;;;;;4974422;28;20090;-76
2022/04/16 11:35:27;;;;;;;0.20;0.20;;;13.80;74.60;;;;;;4918990;28;20427;-75
2022/04/16 11:37:56;;;;;;;0.50;0.22;;;14.00;76.40;;;;;;4938194;28;20046;-76
2022/04/16 11:40:21;;;;;;;2.63;0.50;;;14.00;73.20;;;;;;4977996;28;20085;-75
2022/04/16 11:42:47;;;;;;;2.38;0.17;;;14.20;72.60;;;;;;4964735;28;20190;-76
2022/04/16 11:45:14;;;;;;;1.77;0.30;;;14.30;73.10;;;;;;4981310;28;20047;-76
2022/04/16 11:47:40;;;;;;;2.10;0.30;;;14.50;72.50;;;;;;4975496;28;20034;-76
2022/04/16 11:50:07;;;;;;;0.52;0.20;;;14.60;70.80;;;;;;4979006;28;20038;-77
2022/04/16 11:52:35;;;;;;;1.52;0.30;;;14.80;71.10;;;;;;4980218;28;20034;-76
2022/04/16 11:55:00;;;;;;;1.75;0.20;;;14.80;68.20;;;;;;4977447;28;20497;-77
2022/04/16 11:57:26;;;;;;;1.15;0.30;;;14.80;69.50;;;;;;4962090;28;20034;-76
2022/04/16 11:59:56;;;;;;;0.40;0.20;;;14.80;69.20;;;;;;4975639;28;20133;-76
2022/04/16 12:02:29;;;;;;;1.73;0.30;;;14.90;68.80;;;;;;4986898;28;20589;-76
2022/04/16 12:04:54;;;;;;;4.47;0.60;;;14.80;63.80;;;;;;4980033;28;20038;-84
2022/04/16 12:07:25;;;;;;;3.38;0.73;;;14.80;67.00;;;;;;4981364;28;20043;-82
2022/04/16 12:09:50;;;;;;;10.07;0.38;;;14.80;63.90;;;;;;4985169;28;20100;-81
2022/04/16 12:12:19;;;;;;;0.60;0.30;;;14.90;64.90;;;;;;4977458;28;20043;-82
2022/04/16 12:14:46;;;;;;;3.78;2.15;;;15.20;64.60;;;;;;4980792;28;20046;-81
2022/04/16 12:17:20;;;;;;;1.05;0.43;;;15.40;64.50;;;;;;4984314;28;20234;-82
2022/04/16 12:19:45;;;;;;;0.57;0.20;;;15.50;64.70;;;;;;4963703;28;20035;-81
2022/04/16 12:22:17;;;;;;;0.63;0.30;;;15.70;65.00;;;;;;4964983;28;20047;-81
2022/04/16 12:24:42;;;;;;;0.75;0.25;;;15.80;65.80;;;;;;4976010;28;20042;-81
2022/04/16 12:27:08;;;;;;;1.23;0.20;;;15.90;64.70;;;;;;4967051;28;20058;-83
2022/04/16 12:29:33;;;;;;;0.75;0.20;;;16.10;64.00;;;;;;4959639;28;20057;-82
2022/04/16 12:31:59;;;;;;;2.22;0.55;;;16.20;63.30;;;;;;4973503;28;20046;-82
2022/04/16 12:34:26;;;;;;;0.57;0.35;;;16.30;63.50;;;;;;4976905;28;20099;-81
2022/04/16 12:36:52;;;;;;;0.75;0.40;;;16.40;62.40;;;;;;4976670;28;20106;-81
2022/04/16 12:39:18;;;;;;;1.45;0.32;;;16.40;60.80;;;;;;4979917;28;20065;-81
2022/04/16 12:41:43;;;;;;;10.27;0.60;;;16.40;60.00;;;;;;4984607;28;20498;-81
2022/04/16 12:44:09;;;;;;;0.43;0.22;;;16.50;60.10;;;;;;4985030;28;20550;-80
2022/04/16 12:46:35;;;;;;;1.30;0.22;;;16.50;59.00;;;;;;4965483;28;20056;-83
2022/04/16 12:49:00;;;;;;;2.17;0.10;;;16.70;57.80;;;;;;4986438;28;20043;-83
2022/04/16 12:51:29;;;;;;;3.58;0.20;;;16.70;57.40;;;;;;4974206;28;20443;-82
2022/04/16 12:53:54;;;;;;;1.50;0.30;;;16.70;56.50;;;;;;4972592;28;20078;-83
2022/04/16 12:56:20;;;;;;;0.82;0.32;;;16.70;58.40;;;;;;4987539;28;20491;-82
2022/04/16 12:58:45;;;;;;;0.68;0.20;;;16.80;57.90;;;;;;4979529;28;20050;-82
2022/04/16 13:01:11;;;;;;;0.52;0.20;;;16.80;57.00;;;;;;4980288;28;20043;-82
2022/04/16 13:03:36;;;;;;;2.80;0.22;;;17.00;57.90;;;;;;4989749;28;20045;-81